Terminal Aerodrome Forecast
Issued by NWS

Home | Current Version | Previous Version | Graphics & Text | Print | Product List | Glossary On
Versions: 1 2 3 4 5 6 7 8 9 10 11 12 13 14
000
FTUS45 KGGW 141720
TAFGDV
TAF
KGDV 141720Z 1418/1518 14010KT P6SM -SHRA OVC090
     FM150200 03007KT P6SM VCSH BKN060
     FM150700 02005KT P6SM BKN060=

USA.gov is the U.S. government's official web portal to all federal, state and local government web resources and services.